Jork Valiant — CQEY — position and weather

sailwx.info

Track history (hours):
 
Tides and Currents Weather Stations Pressure Air Temp Water Temp Dewpoint Dewpoint Depression Visibility Wind Speed Wind Dir Waves Ship Positions

Jork Valiant

Last reported at 2018-Jul-23 06:20 UTC. Time now 2018-Jul-23 17:30 UTC.
Position N 37°13' W 001°04'.

Length 159 m; draft 7.9 m.

Type: Ship (hazmat cat A). MMSI: 255805702.

Date/timePositionNaut miles runAvg speedWind from/ knotsBaromVisibWave heightAir tempDewpointWater temp
2018-Jul-23 06:20N 37°13' W 001°04'515.6
2018-Jul-23 05:59N 37°16' W 000°59'715.3
2018-Jul-23 05:30N 37°21' W 000°52'815.3
2018-Jul-23 05:00N 37°26' W 000°45'815.4
2018-Jul-23 04:30N 37°31' W 000°38'815.3
2018-Jul-23 04:00N 37°37' W 000°31'815.5
2018-Jul-23 03:30N 37°44' W 000°26'815.1
2018-Jul-23 03:00N 37°50' W 000°21'715.1
2018-Jul-23 02:30N 37°56' W 000°16'1515.1
2018-Jul-23 01:30N 38°09' W 000°06'8113.0
2018-Jul-22 19:18N 39°30' W 000°07'415.2
2018-Jul-22 19:00N 39°34' W 000°10'4 0.1
2018-Jul-21 03:23N 39°38' W 000°12'2 5.9
2018-Jul-21 03:00N 39°37' W 000°09'45 1.4
2018-Jul-19 19:17N 39°17' E 000°44'416.4
2018-Jul-19 19:00N 39°13' E 000°42'1316.3
2018-Jul-19 18:13N 39°00' E 000°37'616.3
2018-Jul-19 17:49N 38°54' E 000°34'3815.8
2018-Jul-19 15:27N 38°22' E 000°10'815.3
2018-Jul-19 14:57N 38°15' E 000°05'1215.6
2018-Jul-19 14:10N 38°05' W 000°04'2315.6
2018-Jul-19 12:42N 37°46' W 000°20'315.3
2018-Jul-19 12:30N 37°44' W 000°22'815.2
2018-Jul-19 12:00N 37°37' W 000°27'815.4
2018-Jul-19 11:30N 37°31' W 000°33'815.5
2018-Jul-19 11:00N 37°26' W 000°40'815.7
2018-Jul-19 10:30N 37°21' W 000°48'815.6
2018-Jul-19 10:00N 37°16' W 000°55'713.6
2018-Jul-19 09:30N 37°13' W 001°02'815.6
2018-Jul-19 08:59N 37°18' W 000°55'815.6
2018-Jul-19 08:30N 37°23' W 000°47'3 5.4
2018-Jul-19 08:01N 37°20' W 000°49'1015.5
2018-Jul-19 07:21N 37°13' W 000°59'614.8
2018-Jul-19 06:58N 37°10' W 001°04'816.7
2018-Jul-19 06:30N 37°04' W 001°11'1216.9
2018-Jul-19 05:49N 36°56' W 001°22'28313.0
2018-Jul-18 07:58N 35°12' W 006°47'3215.4
2018-Jul-18 05:53N 34°50' W 007°15'11614.4
2018-Jul-17 21:51N 33°29' W 008°55'713.7
2018-Jul-17 21:21N 33°24' W 009°01'3013.7
2018-Jul-17 19:11N 33°03' W 009°27'313.5
2018-Jul-17 18:58N 33°01' W 009°29'  
Track history (hours):
 
Tides and Currents Weather Stations Pressure Air Temp Water Temp Dewpoint Dewpoint Depression Visibility Wind Speed Wind Dir Waves Ship Positions

Jork Valiant

Last reported at 2018-Jul-23 06:20 UTC. Time now 2018-Jul-23 17:30 UTC.
Position N 37°13' W 001°04'.

Length 159 m; draft 7.9 m.

Type: Ship (hazmat cat A). MMSI: 255805702.

Date/timePositionNaut miles runAvg speedWind from/ knotsBaromVisibWave heightAir tempDewpointWater temp
2018-Jul-23 06:20N 37°13' W 001°04'515.6
2018-Jul-23 05:59N 37°16' W 000°59'715.3
2018-Jul-23 05:30N 37°21' W 000°52'815.3
2018-Jul-23 05:00N 37°26' W 000°45'815.4
2018-Jul-23 04:30N 37°31' W 000°38'815.3
2018-Jul-23 04:00N 37°37' W 000°31'815.5
2018-Jul-23 03:30N 37°44' W 000°26'815.1
2018-Jul-23 03:00N 37°50' W 000°21'715.1
2018-Jul-23 02:30N 37°56' W 000°16'1515.1
2018-Jul-23 01:30N 38°09' W 000°06'8113.0
2018-Jul-22 19:18N 39°30' W 000°07'415.2
2018-Jul-22 19:00N 39°34' W 000°10'4 0.1
2018-Jul-21 03:23N 39°38' W 000°12'2 5.9
2018-Jul-21 03:00N 39°37' W 000°09'45 1.4
2018-Jul-19 19:17N 39°17' E 000°44'416.4
2018-Jul-19 19:00N 39°13' E 000°42'1316.3
2018-Jul-19 18:13N 39°00' E 000°37'616.3
2018-Jul-19 17:49N 38°54' E 000°34'3815.8
2018-Jul-19 15:27N 38°22' E 000°10'815.3
2018-Jul-19 14:57N 38°15' E 000°05'1215.6
2018-Jul-19 14:10N 38°05' W 000°04'2315.6
2018-Jul-19 12:42N 37°46' W 000°20'315.3
2018-Jul-19 12:30N 37°44' W 000°22'815.2
2018-Jul-19 12:00N 37°37' W 000°27'815.4
2018-Jul-19 11:30N 37°31' W 000°33'815.5
2018-Jul-19 11:00N 37°26' W 000°40'815.7
2018-Jul-19 10:30N 37°21' W 000°48'815.6
2018-Jul-19 10:00N 37°16' W 000°55'713.6
2018-Jul-19 09:30N 37°13' W 001°02'815.6
2018-Jul-19 08:59N 37°18' W 000°55'815.6
2018-Jul-19 08:30N 37°23' W 000°47'3 5.4
2018-Jul-19 08:01N 37°20' W 000°49'1015.5
2018-Jul-19 07:21N 37°13' W 000°59'614.8
2018-Jul-19 06:58N 37°10' W 001°04'816.7
2018-Jul-19 06:30N 37°04' W 001°11'1216.9
2018-Jul-19 05:49N 36°56' W 001°22'28313.0
2018-Jul-18 07:58N 35°12' W 006°47'3215.4
2018-Jul-18 05:53N 34°50' W 007°15'11614.4
2018-Jul-17 21:51N 33°29' W 008°55'713.7
2018-Jul-17 21:21N 33°24' W 009°01'3013.7
2018-Jul-17 19:11N 33°03' W 009°27'313.5
2018-Jul-17 18:58N 33°01' W 009°29'  

Dump ship's entire track history